Aurora, Kansas
Current Conditions -  °F | °C
As of 6:55 AM on Tuesday 21 Oct 2014 (Local Time) from KCNK Reporting Station
Clear Clear  
Wind Chill: 41°   Ceiling: Unl
Heat Index: 41°   Visibility: 10mi
Dew Point: 40°   Wind: 0mph
Humidity: 96%   Direction: NA
Pressure: 30.09"   Gusts: NA
Location:  39.45°N, 97.53°W
Report Text: KCNK 211155Z AUTO 00000KT 10SM CLR 05/04 A3009 RMK AO2 SLP187 T00500044 10117 20050 53003
Loading
Personal Weather Stations






























Interactive Weather Map
Tropical Storm Tracking
New forecast layout! Learn more

10-Day Weather Forecast

Advertisements
Track Severe Weather on mobile